Terminal Aerodrome Forecast
Issued by NWS Salt Lake City, UT

Home | Current Version | Previous Version | Text Only | Print | Product List | Glossary On
Versions: 1 2 3 4 5 6 7 8 9 10 11 12 13 14 15 16 17 18 19 20 21 22 23 24 25 26 27 28 29 30 31 32
000
FTUS45 KSLC 181726
TAFSLC
TAF
KSLC 181726Z 1818/1924 31010KT P6SM SCT120 BKN150
     FM181900 32012KT P6SM VCSH BKN070 BKN100
     FM190200 34007KT P6SM VCSH BKN070 BKN100
     FM190500 17005KT P6SM SCT070 BKN100
     FM192000 31007KT P6SM SCT070 BKN110=

USA.gov is the U.S. government's official web portal to all federal, state and local government web resources and services.